Time;durP1;ratioP1;P1;durP2;ratioP2;P2;SDS_P1;SDS_P2;PMS_P1;PMS_P2;Temp;Humidity;BMP_temperature;BMP_pressure;BME280_temperature;BME280_humidity;BME280_pressure;Samples;Min_cycle;Max_cycle;Signal;HPM_P1;HPM_P2
2021/08/16 00:00:58;;;;;;;5.87;5.37;;;22.90;1.00;;;;;;5071882;28;20814;-53
2021/08/16 00:03:24;;;;;;;9.07;6.20;;;22.80;1.00;;;;;;5088620;28;20441;-53
2021/08/16 00:05:49;;;;;;;8.80;5.90;;;22.80;1.00;;;;;;5092128;28;20186;-52
2021/08/16 00:08:15;;;;;;;10.60;5.90;;;22.80;1.00;;;;;;5071872;28;20623;-53
2021/08/16 00:10:41;;;;;;;7.23;5.70;;;22.80;1.00;;;;;;5072051;28;20203;-54
2021/08/16 00:13:06;;;;;;;6.77;5.87;;;22.80;1.00;;;;;;5073269;28;20204;-54
2021/08/16 00:15:32;;;;;;;6.40;5.80;;;22.70;1.00;;;;;;5072183;28;20213;-53
2021/08/16 00:17:59;;;;;;;8.57;5.70;;;22.70;1.00;;;;;;5087061;28;20261;-53
2021/08/16 00:20:26;;;;;;;6.70;6.07;;;22.60;1.00;;;;;;5092121;28;20182;-53
2021/08/16 00:22:51;;;;;;;9.53;6.93;;;22.60;1.00;;;;;;5092046;28;20519;-54
2021/08/16 00:25:17;;;;;;;7.63;6.93;;;22.60;1.00;;;;;;5091835;28;20527;-53
2021/08/16 00:27:42;;;;;;;6.30;5.70;;;22.50;1.00;;;;;;5092167;28;20194;-55
2021/08/16 00:30:08;;;;;;;10.53;6.50;;;22.40;1.00;;;;;;5082947;28;20199;-52
2021/08/16 00:32:34;;;;;;;8.10;6.97;;;22.30;1.00;;;;;;5088152;28;20211;-53
2021/08/16 00:34:59;;;;;;;11.20;6.70;;;22.20;1.00;;;;;;5085277;28;20429;-53
2021/08/16 00:37:25;;;;;;;9.97;6.60;;;22.20;1.00;;;;;;5073174;28;20266;-54
2021/08/16 00:39:50;;;;;;;7.63;6.20;;;22.10;1.00;;;;;;5080117;28;20257;-56
2021/08/16 00:42:16;;;;;;;7.43;6.50;;;22.10;1.00;;;;;;5081160;28;20190;-53
2021/08/16 00:44:42;;;;;;;8.63;6.53;;;22.10;1.00;;;;;;5080460;28;20257;-53
2021/08/16 00:47:08;;;;;;;7.90;6.77;;;22.10;1.00;;;;;;5084876;28;20527;-55
2021/08/16 00:49:34;;;;;;;7.33;6.13;;;22.10;1.00;;;;;;5075629;28;20197;-54
2021/08/16 00:52:00;;;;;;;7.53;6.50;;;22.00;1.00;;;;;;5082524;28;20582;-53
2021/08/16 00:54:26;;;;;;;7.67;6.40;;;22.10;1.00;;;;;;5078577;28;20182;-53
2021/08/16 00:56:51;;;;;;;7.50;6.80;;;22.10;1.00;;;;;;5082950;28;20528;-53
2021/08/16 00:59:18;;;;;;;7.70;6.90;;;22.00;1.00;;;;;;5075230;28;20178;-53
2021/08/16 01:01:44;;;;;;;7.77;5.73;;;22.00;1.00;;;;;;5083864;28;20644;-54
2021/08/16 01:04:09;;;;;;;8.87;6.67;;;22.00;1.00;;;;;;5090944;28;20466;-54
2021/08/16 01:06:35;;;;;;;8.17;6.07;;;21.90;1.00;;;;;;5089738;28;20232;-54
2021/08/16 01:09:01;;;;;;;6.67;5.57;;;21.80;1.00;;;;;;5082739;28;20233;-54
2021/08/16 01:11:27;;;;;;;8.00;7.10;;;21.70;1.00;;;;;;5080921;28;20590;-52
2021/08/16 01:13:52;;;;;;;7.20;6.50;;;21.70;1.00;;;;;;5082649;28;20181;-55
2021/08/16 01:16:19;;;;;;;8.40;6.53;;;21.70;1.00;;;;;;5088254;28;20861;-55
2021/08/16 01:18:45;;;;;;;8.23;6.40;;;21.70;1.00;;;;;;5079939;28;20211;-53
2021/08/16 01:21:14;;;;;;;7.97;6.87;;;21.60;1.00;;;;;;5084977;28;20796;-53
2021/08/16 01:23:40;;;;;;;7.83;6.53;;;21.60;1.00;;;;;;5078555;28;20443;-54
2021/08/16 01:26:06;;;;;;;7.00;6.30;;;21.50;1.00;;;;;;5088224;28;20452;-55
2021/08/16 01:28:32;;;;;;;7.27;6.27;;;21.50;1.00;;;;;;5087234;28;20429;-52
2021/08/16 01:31:05;;;;;;;6.83;6.13;;;21.40;1.00;;;;;;5078071;28;20784;-53
2021/08/16 01:33:31;;;;;;;8.73;6.50;;;21.30;1.00;;;;;;5084686;28;20868;-53
2021/08/16 01:35:57;;;;;;;7.27;6.30;;;21.30;1.00;;;;;;5074625;28;20445;-53
2021/08/16 01:38:29;;;;;;;8.83;7.00;;;21.20;1.00;;;;;;5079634;28;20437;-55
2021/08/16 01:40:54;;;;;;;7.63;6.93;;;21.20;1.00;;;;;;5073246;28;20931;-54
2021/08/16 01:43:20;;;;;;;8.57;6.60;;;21.30;1.00;;;;;;5082817;28;20440;-53
2021/08/16 01:45:46;;;;;;;7.53;6.70;;;21.30;1.00;;;;;;5076345;28;20237;-53
2021/08/16 01:48:15;;;;;;;7.83;6.83;;;21.20;1.00;;;;;;5084706;28;20221;-55
2021/08/16 01:50:41;;;;;;;6.77;5.73;;;21.20;1.00;;;;;;5074867;28;20205;-54
2021/08/16 01:53:10;;;;;;;6.47;5.97;;;21.20;1.00;;;;;;5083050;28;20467;-54
2021/08/16 01:55:36;;;;;;;8.30;6.90;;;21.20;1.00;;;;;;5077391;28;20525;-54
2021/08/16 01:58:02;;;;;;;8.57;6.20;;;21.20;1.00;;;;;;5084554;28;20525;-52
2021/08/16 02:00:27;;;;;;;8.60;6.10;;;21.20;1.00;;;;;;5083320;28;20720;-53
2021/08/16 02:02:53;;;;;;;8.37;6.80;;;21.10;1.00;;;;;;5079253;28;20874;-52
2021/08/16 02:05:19;;;;;;;7.03;6.33;;;21.10;1.00;;;;;;5077327;28;20175;-54
2021/08/16 02:07:44;;;;;;;8.00;6.87;;;21.00;1.00;;;;;;5076523;28;20268;-55
2021/08/16 02:10:10;;;;;;;7.60;6.80;;;21.00;1.00;;;;;;5082864;28;20187;-54
2021/08/16 02:12:36;;;;;;;8.00;7.27;;;20.80;1.00;;;;;;5090345;28;20265;-55
2021/08/16 02:15:03;;;;;;;11.60;8.60;;;20.90;1.00;;;;;;5079233;28;20527;-53
2021/08/16 02:17:28;;;;;;;6.90;6.13;;;20.90;1.00;;;;;;5083748;28;20215;-53
2021/08/16 02:19:54;;;;;;;6.33;5.83;;;20.80;1.00;;;;;;5073641;28;20448;-53
2021/08/16 02:22:22;;;;;;;7.70;6.90;;;20.90;1.00;;;;;;5089881;28;20221;-54
2021/08/16 02:24:48;;;;;;;7.70;7.00;;;20.90;1.00;;;;;;5078811;28;20171;-55
2021/08/16 02:27:13;;;;;;;7.50;6.77;;;20.80;1.00;;;;;;5087818;28;20447;-53
2021/08/16 02:29:39;;;;;;;7.40;6.70;;;20.80;1.00;;;;;;5082789;28;20183;-53
2021/08/16 02:32:04;;;;;;;10.07;7.47;;;20.70;1.00;;;;;;5090098;28;20202;-53
2021/08/16 02:34:30;;;;;;;8.93;7.03;;;20.70;1.00;;;;;;5084840;28;20187;-54
2021/08/16 02:36:56;;;;;;;11.50;7.30;;;20.70;1.00;;;;;;5083738;28;20183;-53
2021/08/16 02:39:21;;;;;;;10.43;6.77;;;20.70;1.00;;;;;;5078702;28;20183;-55
2021/08/16 02:41:47;;;;;;;7.33;6.63;;;20.70;1.00;;;;;;5076880;28;20188;-55
2021/08/16 02:44:13;;;;;;;7.30;6.60;;;20.60;1.00;;;;;;5073739;28;20687;-52
2021/08/16 02:46:38;;;;;;;7.07;6.37;;;20.60;1.00;;;;;;5075888;28;20188;-53
2021/08/16 02:49:04;;;;;;;8.00;7.20;;;20.60;1.00;;;;;;5077596;28;20289;-53
2021/08/16 02:51:30;;;;;;;7.87;7.03;;;20.60;1.00;;;;;;5080678;28;20213;-53
2021/08/16 02:53:56;;;;;;;7.60;6.93;;;20.60;1.00;;;;;;5083158;28;20197;-54
2021/08/16 02:56:22;;;;;;;9.80;6.83;;;20.70;1.00;;;;;;5092213;28;20460;-53
2021/08/16 02:58:47;;;;;;;7.50;6.80;;;20.70;1.00;;;;;;5091509;28;20485;-54
2021/08/16 03:01:13;;;;;;;8.67;7.17;;;20.70;1.00;;;;;;5083661;28;20808;-56
2021/08/16 03:03:39;;;;;;;7.60;6.90;;;20.60;1.00;;;;;;5075729;28;20175;-54
2021/08/16 03:06:04;;;;;;;8.23;7.43;;;20.70;1.00;;;;;;5081557;28;20218;-55
2021/08/16 03:08:33;;;;;;;7.23;6.57;;;20.70;1.00;;;;;;5084532;28;20209;-53
2021/08/16 03:10:58;;;;;;;7.57;6.93;;;20.60;1.00;;;;;;5091987;28;20540;-53
2021/08/16 03:13:24;;;;;;;8.43;7.50;;;20.60;1.00;;;;;;5079029;28;20464;-54
2021/08/16 03:15:49;;;;;;;8.70;7.07;;;20.60;1.00;;;;;;5084994;28;20195;-55
2021/08/16 03:18:15;;;;;;;8.30;7.50;;;20.60;1.00;;;;;;5079891;28;20317;-53
2021/08/16 03:20:40;;;;;;;8.43;7.50;;;20.60;1.00;;;;;;5081878;28;20673;-55
2021/08/16 03:23:06;;;;;;;10.73;8.13;;;20.50;1.00;;;;;;5084813;28;20505;-54
2021/08/16 03:25:31;;;;;;;10.80;6.43;;;20.50;1.00;;;;;;5080489;28;20179;-56
2021/08/16 03:27:57;;;;;;;7.93;7.13;;;20.50;1.00;;;;;;5092078;28;20182;-54
2021/08/16 03:30:23;;;;;;;7.40;6.70;;;20.50;1.00;;;;;;5092446;28;20189;-52
2021/08/16 03:32:48;;;;;;;7.80;6.90;;;20.50;1.00;;;;;;5089410;28;20198;-53
2021/08/16 03:35:15;;;;;;;7.70;6.90;;;20.40;1.00;;;;;;5077074;28;20203;-56
2021/08/16 03:37:41;;;;;;;7.90;7.10;;;20.40;1.00;;;;;;5077142;28;20510;-52
2021/08/16 03:40:08;;;;;;;8.67;6.83;;;20.40;1.00;;;;;;5075571;28;20433;-54
2021/08/16 03:42:34;;;;;;;8.23;7.37;;;20.40;1.00;;;;;;5081928;28;20468;-56
2021/08/16 03:45:00;;;;;;;6.80;6.20;;;20.40;1.00;;;;;;5087167;28;20468;-53
2021/08/16 03:47:26;;;;;;;7.17;6.60;;;20.40;1.00;;;;;;5086483;28;20571;-53
2021/08/16 03:49:54;;;;;;;7.13;6.43;;;20.30;1.00;;;;;;5085996;28;20433;-58
2021/08/16 03:52:19;;;;;;;7.37;6.67;;;20.50;1.00;;;;;;5078755;28;20667;-53
2021/08/16 03:54:45;;;;;;;7.17;6.47;;;20.40;1.00;;;;;;5090980;28;20437;-52
2021/08/16 03:57:10;;;;;;;10.33;7.57;;;20.50;1.00;;;;;;5086808;28;20806;-54
2021/08/16 03:59:36;;;;;;;7.50;6.80;;;20.50;1.00;;;;;;5078126;28;20183;-54
2021/08/16 04:02:02;;;;;;;7.40;6.70;;;20.60;1.00;;;;;;5076355;28;20205;-54
2021/08/16 04:04:28;;;;;;;7.10;6.13;;;20.70;1.00;;;;;;5075538;28;20445;-53
2021/08/16 04:06:54;;;;;;;7.90;7.10;;;20.70;1.00;;;;;;5089788;28;20202;-54
2021/08/16 04:09:19;;;;;;;7.10;6.30;;;20.70;1.00;;;;;;5079083;28;20308;-53
2021/08/16 04:11:45;;;;;;;7.93;7.20;;;20.80;1.00;;;;;;5077486;28;20568;-54
2021/08/16 04:14:11;;;;;;;7.80;6.53;;;20.90;1.00;;;;;;5076869;28;20521;-52
2021/08/16 04:16:36;;;;;;;8.70;7.40;;;20.90;1.00;;;;;;5076299;28;20179;-54
2021/08/16 04:19:02;;;;;;;8.13;7.33;;;20.90;1.00;;;;;;5084650;28;20194;-53
2021/08/16 04:21:27;;;;;;;7.93;7.13;;;21.00;1.00;;;;;;5081967;28;20328;-55
2021/08/16 04:23:53;;;;;;;8.83;7.20;;;21.00;1.00;;;;;;5079369;28;20228;-53
2021/08/16 04:26:18;;;;;;;9.30;6.70;;;21.00;1.00;;;;;;5077437;28;20674;-53
2021/08/16 04:28:44;;;;;;;9.20;7.40;;;21.00;1.00;;;;;;5076900;28;20192;-53
2021/08/16 04:31:09;;;;;;;8.20;7.00;;;21.10;1.00;;;;;;5078073;28;20186;-54
2021/08/16 04:33:35;;;;;;;7.40;6.60;;;21.20;1.00;;;;;;5087043;28;20175;-52
2021/08/16 04:36:00;;;;;;;9.87;7.50;;;21.20;1.00;;;;;;5083314;28;20202;-54
2021/08/16 04:38:26;;;;;;;7.23;6.60;;;21.30;1.00;;;;;;5076472;28;20273;-54
2021/08/16 04:40:53;;;;;;;8.30;7.30;;;21.20;1.00;;;;;;5080958;28;20175;-52
2021/08/16 04:43:20;;;;;;;7.73;7.03;;;21.30;1.00;;;;;;5083502;28;20184;-52
2021/08/16 04:45:45;;;;;;;8.60;7.77;;;21.30;1.00;;;;;;5085611;28;20445;-54
2021/08/16 04:48:11;;;;;;;7.43;6.70;;;21.30;1.00;;;;;;5084208;28;20942;-54
2021/08/16 04:50:36;;;;;;;8.03;6.70;;;21.40;1.00;;;;;;5087609;28;20183;-55
2021/08/16 04:53:02;;;;;;;8.03;6.90;;;21.30;1.00;;;;;;5089864;28;20202;-54
2021/08/16 04:55:28;;;;;;;11.07;7.60;;;21.30;1.00;;;;;;5084853;28;20183;-52
2021/08/16 04:57:53;;;;;;;8.40;7.43;;;21.30;1.00;;;;;;5075037;28;20175;-53
2021/08/16 05:00:24;;;;;;;7.60;6.90;;;21.30;1.00;;;;;;5078319;28;20183;-52
2021/08/16 05:02:49;;;;;;;9.20;7.40;;;21.20;1.00;;;;;;5084624;28;20178;-54
2021/08/16 05:05:15;;;;;;;7.60;6.87;;;21.30;1.00;;;;;;5077300;28;21095;-52
2021/08/16 05:07:47;;;;;;;9.37;6.80;;;21.30;1.00;;;;;;5079434;28;20215;-51
2021/08/16 05:10:13;;;;;;;8.03;7.17;;;21.30;1.00;;;;;;5077336;28;20548;-55
2021/08/16 05:12:39;;;;;;;8.43;7.40;;;;;;;;;;5081910;28;20597;-53
2021/08/16 05:15:06;;;;;;;9.90;8.90;;;21.30;1.00;;;;;;5083069;28;20202;-54
2021/08/16 05:17:35;;;;;;;11.10;7.63;;;21.20;1.00;;;;;;5086747;28;20476;-52
2021/08/16 05:20:02;;;;;;;10.27;7.43;;;21.30;1.00;;;;;;5082392;28;20440;-53
2021/08/16 05:22:28;;;;;;;7.30;6.60;;;21.30;1.00;;;;;;5080665;28;20452;-54
2021/08/16 05:24:53;;;;;;;7.53;6.83;;;21.30;1.00;;;;;;5087514;28;20451;-52
2021/08/16 05:27:19;;;;;;;8.70;7.20;;;21.30;1.00;;;;;;5078818;28;20258;-54
2021/08/16 05:29:44;;;;;;;7.90;7.10;;;21.20;1.00;;;;;;5076542;28;20191;-53
2021/08/16 05:32:10;;;;;;;7.80;7.10;;;21.10;1.00;;;;;;5086676;28;20230;-55
2021/08/16 05:34:36;;;;;;;7.80;7.07;;;21.20;1.00;;;;;;5083610;28;20210;-53
2021/08/16 05:37:02;;;;;;;8.13;6.93;;;;;;;;;;5079690;28;20192;-53
2021/08/16 05:39:28;;;;;;;7.80;7.00;;;21.40;1.00;;;;;;5084221;28;20439;-55
2021/08/16 05:41:53;;;;;;;8.43;7.63;;;21.60;1.00;;;;;;5075072;28;20449;-53
2021/08/16 05:44:19;;;;;;;7.80;6.77;;;21.80;1.00;;;;;;5081883;28;20263;-53
2021/08/16 05:46:45;;;;;;;7.20;6.60;;;21.90;1.00;;;;;;5081578;28;20194;-54
2021/08/16 05:49:10;;;;;;;9.70;8.17;;;22.10;1.00;;;;;;5084845;28;20201;-53
2021/08/16 05:51:36;;;;;;;7.53;6.70;;;22.10;1.00;;;;;;5078178;28;20230;-53
2021/08/16 05:54:03;;;;;;;8.30;7.03;;;22.30;1.00;;;;;;5086924;28;20550;-55
2021/08/16 05:56:29;;;;;;;8.33;7.37;;;22.50;1.00;;;;;;5085072;28;20232;-54
2021/08/16 05:58:54;;;;;;;8.43;6.90;;;22.70;1.00;;;;;;5087187;28;20441;-52
2021/08/16 06:01:20;;;;;;;8.23;7.30;;;22.90;1.00;;;;;;5087587;28;20201;-55
2021/08/16 06:03:45;;;;;;;9.00;7.33;;;23.00;1.00;;;;;;5084378;28;20183;-54
2021/08/16 06:06:11;;;;;;;10.50;8.23;;;23.10;1.00;;;;;;5079537;28;20183;-53
2021/08/16 06:08:36;;;;;;;7.90;7.10;;;23.20;1.00;;;;;;5088475;28;20178;-54
2021/08/16 06:11:03;;;;;;;8.27;7.37;;;23.00;1.00;;;;;;5094071;28;20175;-52
2021/08/16 06:13:29;;;;;;;11.20;7.67;;;23.10;1.00;;;;;;5092431;28;20289;-52
2021/08/16 06:15:54;;;;;;;7.93;6.47;;;23.20;1.00;;;;;;5085699;28;20566;-52
2021/08/16 06:18:20;;;;;;;8.90;7.00;;;23.40;1.00;;;;;;5079057;28;20740;-53
2021/08/16 06:20:45;;;;;;;6.93;6.23;;;23.70;1.00;;;;;;5083634;28;20193;-55
2021/08/16 06:23:11;;;;;;;8.27;7.40;;;23.90;1.00;;;;;;5083260;28;20312;-55
2021/08/16 06:25:36;;;;;;;8.23;7.33;;;23.90;1.00;;;;;;5082335;28;20183;-54
2021/08/16 06:28:02;;;;;;;9.53;7.07;;;23.90;1.00;;;;;;5081262;28;20183;-52
2021/08/16 06:30:28;;;;;;;7.60;6.90;;;23.80;1.00;;;;;;5091226;28;20257;-53
2021/08/16 06:32:53;;;;;;;8.10;7.40;;;23.80;1.00;;;;;;5080446;28;20210;-53
2021/08/16 06:35:19;;;;;;;8.33;7.03;;;23.90;1.00;;;;;;5083945;28;20528;-53
2021/08/16 06:37:46;;;;;;;7.07;6.37;;;24.10;1.00;;;;;;5083675;28;20184;-53
2021/08/16 06:40:12;;;;;;;9.30;7.20;;;24.20;1.00;;;;;;5077717;28;20453;-53
2021/08/16 06:42:38;;;;;;;8.00;6.80;;;24.40;1.00;;;;;;5086828;28;20456;-54
2021/08/16 06:45:05;;;;;;;10.73;7.30;;;24.60;1.00;;;;;;5090075;28;20437;-52
2021/08/16 06:47:31;;;;;;;7.53;6.83;;;24.90;1.00;;;;;;5093125;28;20182;-53
2021/08/16 06:49:56;;;;;;;7.30;6.60;;;24.90;1.00;;;;;;5087109;28;20473;-53
2021/08/16 06:52:22;;;;;;;15.53;7.37;;;25.00;1.00;;;;;;5090433;28;20526;-55
2021/08/16 06:54:47;;;;;;;6.83;6.13;;;25.20;1.00;;;;;;5086115;28;20194;-55
2021/08/16 06:57:13;;;;;;;8.90;6.50;;;25.50;1.00;;;;;;5078322;28;20172;-55
2021/08/16 06:59:39;;;;;;;11.13;7.00;;;25.80;1.00;;;;;;5082415;28;20235;-53
2021/08/16 07:02:04;;;;;;;11.17;6.87;;;25.90;1.00;;;;;;5089971;28;20643;-54
2021/08/16 07:04:30;;;;;;;7.30;6.70;;;25.30;1.00;;;;;;5086657;28;20528;-52
2021/08/16 07:06:55;;;;;;;8.57;6.87;;;26.30;1.00;;;;;;5072812;28;20183;-54
2021/08/16 07:09:21;;;;;;;11.80;7.50;;;26.30;1.00;;;;;;5078073;28;20578;-53
2021/08/16 07:11:46;;;;;;;10.63;7.80;;;26.30;1.00;;;;;;5081384;28;20214;-54
2021/08/16 07:14:12;;;;;;;7.27;6.57;;;25.90;1.00;;;;;;5078149;28;20183;-53
2021/08/16 07:16:38;;;;;;;9.57;7.07;;;25.90;1.00;;;;;;5086809;28;20179;-53
2021/08/16 07:19:03;;;;;;;7.83;6.70;;;25.80;1.00;;;;;;5081361;28;20178;-52
2021/08/16 07:21:29;;;;;;;6.50;5.63;;;25.90;1.00;;;;;;5082966;28;20178;-53
2021/08/16 07:23:55;;;;;;;13.70;6.47;;;25.90;1.00;;;;;;5076769;28;20190;-54
2021/08/16 07:26:21;;;;;;;7.90;5.73;;;25.70;1.00;;;;;;5080359;28;20179;-54
2021/08/16 07:28:48;;;;;;;10.57;6.03;;;25.70;1.00;;;;;;5084224;28;20443;-54
2021/08/16 07:31:13;;;;;;;8.13;5.80;;;25.60;1.00;;;;;;5079172;28;20455;-53
2021/08/16 07:33:39;;;;;;;8.60;6.17;;;25.70;1.00;;;;;;5085112;28;20440;-53
2021/08/16 07:36:06;;;;;;;9.57;5.93;;;25.90;1.00;;;;;;5076197;28;20193;-54
2021/08/16 07:38:32;;;;;;;6.60;5.90;;;25.90;1.00;;;;;;5087839;28;20225;-53
2021/08/16 07:40:57;;;;;;;6.50;5.90;;;26.40;1.00;;;;;;5083224;28;21018;-53
2021/08/16 07:43:23;;;;;;;6.83;6.13;;;26.70;1.00;;;;;;5076845;28;20183;-54
2021/08/16 07:45:50;;;;;;;9.23;6.17;;;26.60;1.00;;;;;;5090569;28;20451;-52
2021/08/16 07:48:16;;;;;;;8.37;7.60;;;26.60;1.00;;;;;;5078665;28;20198;-52
2021/08/16 07:50:42;;;;;;;8.30;7.00;;;26.30;1.00;;;;;;5082746;28;20504;-54
2021/08/16 07:53:19;;;;;;;8.67;7.83;;;25.80;1.00;;;;;;5078454;28;20476;-55
2021/08/16 07:55:44;;;;;;;8.33;7.43;;;25.70;1.00;;;;;;5075447;28;20194;-54
2021/08/16 07:58:10;;;;;;;7.83;7.03;;;25.90;1.00;;;;;;5080405;28;20425;-53
2021/08/16 08:00:35;;;;;;;7.90;7.00;;;26.20;1.00;;;;;;5087306;28;20205;-54
2021/08/16 08:03:01;;;;;;;7.10;5.60;;;26.40;1.00;;;;;;5086423;28;20194;-55
2021/08/16 08:05:26;;;;;;;7.57;5.57;;;26.50;1.00;;;;;;5091450;28;20252;-51
2021/08/16 08:07:52;;;;;;;6.93;5.43;;;26.50;1.00;;;;;;5091812;28;20576;-54
2021/08/16 08:10:19;;;;;;;5.93;5.20;;;26.60;1.00;;;;;;5090628;28;20183;-52
2021/08/16 08:12:46;;;;;;;7.13;5.50;;;26.20;1.00;;;;;;5076760;28;20233;-53
2021/08/16 08:15:13;;;;;;;6.10;5.60;;;26.00;1.00;;;;;;5072181;28;20491;-54
2021/08/16 08:17:38;;;;;;;6.33;5.03;;;26.10;1.00;;;;;;5076895;28;20525;-54
2021/08/16 08:20:05;;;;;;;7.07;5.60;;;26.60;1.00;;;;;;5077392;28;20445;-52
2021/08/16 08:22:32;;;;;;;6.60;6.00;;;26.70;1.00;;;;;;5091567;28;20179;-53
2021/08/16 08:24:59;;;;;;;7.43;6.63;;;26.70;1.00;;;;;;5081506;28;20437;-53
2021/08/16 08:27:26;;;;;;;10.80;7.70;;;26.50;1.00;;;;;;5090627;28;20756;-52
2021/08/16 08:29:51;;;;;;;8.00;7.13;;;26.20;1.00;;;;;;5076960;28;20445;-53
2021/08/16 08:32:17;;;;;;;7.43;6.63;;;25.90;1.00;;;;;;5079855;28;20246;-55
2021/08/16 08:34:43;;;;;;;8.17;6.97;;;25.80;1.00;;;;;;5078609;28;20179;-54
2021/08/16 08:37:15;;;;;;;8.50;7.60;;;25.80;1.00;;;;;;5094086;28;20187;-54
2021/08/16 08:39:42;;;;;;;8.63;7.83;;;26.00;1.00;;;;;;5091445;28;20437;-53
2021/08/16 08:42:11;;;;;;;8.73;7.83;;;26.00;1.00;;;;;;5090326;28;20789;-54
2021/08/16 08:44:37;;;;;;;9.63;8.20;;;26.10;1.00;;;;;;5091297;28;21098;-53
2021/08/16 08:47:03;;;;;;;9.33;8.43;;;26.40;1.00;;;;;;5089249;28;20455;-56
2021/08/16 08:49:29;;;;;;;9.50;8.20;;;26.50;1.00;;;;;;5083517;28;20909;-52
2021/08/16 08:51:54;;;;;;;8.77;7.87;;;26.50;1.00;;;;;;5074749;28;20206;-54
2021/08/16 08:54:20;;;;;;;9.63;8.73;;;26.10;1.00;;;;;;5070924;28;20190;-54
2021/08/16 08:56:47;;;;;;;10.93;8.30;;;25.90;1.00;;;;;;5089884;28;20185;-52
2021/08/16 08:59:13;;;;;;;10.20;8.20;;;25.90;1.00;;;;;;5091166;28;20262;-53
2021/08/16 09:01:53;;;;;;;8.47;7.60;;;25.90;1.00;;;;;;5080545;28;20532;-54
2021/08/16 09:04:19;;;;;;;8.27;7.47;;;25.90;1.00;;;;;;5083473;28;20441;-53
2021/08/16 09:06:45;;;;;;;9.70;8.00;;;26.00;1.00;;;;;;5080471;28;20448;-53
2021/08/16 09:09:11;;;;;;;12.97;6.87;;;25.80;1.00;;;;;;5070613;28;20434;-54
2021/08/16 09:11:37;;;;;;;9.53;6.57;;;25.70;1.00;;;;;;5073248;28;20437;-54
2021/08/16 09:14:05;;;;;;;7.60;6.77;;;25.80;1.00;;;;;;5088327;28;20232;-53
2021/08/16 09:16:33;;;;;;;9.70;6.83;;;25.90;1.00;;;;;;5090848;28;20437;-53
2021/08/16 09:19:10;;;;;;;7.40;6.30;;;26.00;1.00;;;;;;5090966;28;20485;-55
2021/08/16 09:21:38;;;;;;;9.00;6.27;;;26.10;1.00;;;;;;5092431;28;20447;-54
2021/08/16 09:24:04;;;;;;;8.23;5.83;;;26.40;1.00;;;;;;5085857;28;20781;-53
2021/08/16 09:26:32;;;;;;;8.10;6.67;;;26.60;1.00;;;;;;5089624;28;20828;-52
2021/08/16 09:29:19;;;;;;;9.00;6.50;;;26.90;1.00;;;;;;5090511;28;20914;-55
2021/08/16 09:31:55;;;;;;;8.23;6.90;;;26.70;1.00;;;;;;5076499;28;20480;-53
2021/08/16 09:34:34;;;;;;;7.40;6.70;;;26.90;1.00;;;;;;5079112;28;20954;-53
2021/08/16 09:37:01;;;;;;;6.90;6.23;;;26.90;1.00;;;;;;5077986;28;20487;-56
2021/08/16 09:39:29;;;;;;;7.77;6.20;;;27.10;1.00;;;;;;5080014;28;21011;-54
2021/08/16 09:41:59;;;;;;;6.57;5.87;;;27.30;1.00;;;;;;5074582;28;20502;-53
2021/08/16 09:44:26;;;;;;;10.20;6.00;;;27.20;1.00;;;;;;5074528;28;20441;-53
2021/08/16 09:47:03;;;;;;;7.93;6.40;;;27.20;1.00;;;;;;5074777;28;20453;-54
2021/08/16 09:49:30;;;;;;;7.93;6.20;;;27.10;1.00;;;;;;5078476;28;20445;-52
2021/08/16 09:52:09;;;;;;;6.10;5.37;;;27.30;1.00;;;;;;5083538;28;20554;-54
2021/08/16 09:54:35;;;;;;;8.70;5.77;;;27.50;1.00;;;;;;5092671;28;20443;-53
2021/08/16 09:57:03;;;;;;;6.93;5.93;;;27.60;1.00;;;;;;5079732;28;20456;-54
2021/08/16 09:59:33;;;;;;;8.77;5.80;;;27.90;1.00;;;;;;5080262;28;20452;-52
2021/08/16 10:02:00;;;;;;;6.30;4.97;;;28.00;1.00;;;;;;5076954;28;20451;-53
2021/08/16 10:04:28;;;;;;;6.20;5.27;;;28.40;1.00;;;;;;5079466;28;20843;-54
2021/08/16 10:06:56;;;;;;;7.13;6.43;;;28.30;1.00;;;;;;5076950;28;20416;-52
2021/08/16 10:09:24;;;;;;;7.70;6.90;;;28.10;1.00;;;;;;5074035;28;20434;-53
2021/08/16 10:11:51;;;;;;;6.87;5.10;;;27.80;1.00;;;;;;5088562;28;20854;-53
2021/08/16 10:14:23;;;;;;;8.13;6.37;;;27.70;1.00;;;;;;5073912;28;20430;-54
2021/08/16 10:16:52;;;;;;;6.77;5.87;;;27.50;1.00;;;;;;5073548;28;20472;-55
2021/08/16 10:19:31;;;;;;;6.30;5.17;;;27.30;1.00;;;;;;5082271;28;20443;-52
2021/08/16 10:21:59;;;;;;;9.00;5.97;;;27.00;1.00;;;;;;5078813;28;20954;-53
2021/08/16 10:24:29;;;;;;;8.70;6.97;;;26.70;1.00;;;;;;5073580;28;20444;-53
2021/08/16 10:27:12;;;;;;;8.73;6.13;;;26.50;1.00;;;;;;5076140;28;20448;-54
2021/08/16 10:29:39;;;;;;;6.90;6.30;;;25.90;1.00;;;;;;5094005;28;20527;-52
2021/08/16 10:32:19;;;;;;;13.23;6.77;;;26.00;1.00;;;;;;5092522;28;20514;-54
2021/08/16 10:34:44;;;;;;;7.23;6.53;;;26.40;1.00;;;;;;5093962;28;20402;-54
2021/08/16 10:37:12;;;;;;;8.47;6.20;;;26.60;1.00;;;;;;5093842;28;20429;-52
2021/08/16 10:39:46;;;;;;;7.40;6.30;;;27.20;1.00;;;;;;5093478;28;20187;-53
2021/08/16 10:42:16;;;;;;;8.90;6.10;;;27.50;1.00;;;;;;5092578;28;20945;-53
2021/08/16 10:44:47;;;;;;;11.33;6.20;;;27.90;1.00;;;;;;5092145;28;20441;-53
2021/08/16 10:47:26;;;;;;;7.73;5.70;;;28.00;1.00;;;;;;5092978;28;20582;-51
2021/08/16 10:50:08;;;;;;;7.77;6.97;;;27.70;1.00;;;;;;5093453;28;20440;-53
2021/08/16 10:52:37;;;;;;;7.53;6.73;;;27.70;1.00;;;;;;5093160;28;20913;-52
2021/08/16 10:55:10;;;;;;;8.97;6.57;;;27.90;1.00;;;;;;5093328;28;20437;-55
2021/08/16 10:57:36;;;;;;;7.63;6.40;;;28.00;1.00;;;;;;5092973;28;20441;-55
2021/08/16 11:00:04;;;;;;;10.13;6.43;;;27.80;1.00;;;;;;5088405;28;20427;-53
2021/08/16 11:02:30;;;;;;;8.20;6.60;;;27.80;1.00;;;;;;5076912;28;20451;-52
2021/08/16 11:04:56;;;;;;;7.00;6.30;;;28.00;1.00;;;;;;5074311;28;20592;-53
2021/08/16 11:07:24;;;;;;;6.40;5.90;;;28.00;1.00;;;;;;5072855;28;20533;-54
2021/08/16 11:10:01;;;;;;;7.87;7.10;;;28.30;1.00;;;;;;5072975;28;20187;-54
2021/08/16 11:12:45;;;;;;;10.23;7.00;;;28.40;1.00;;;;;;5082153;28;20826;-54
2021/08/16 11:15:13;;;;;;;8.63;6.70;;;28.10;1.00;;;;;;5085500;28;20446;-54
2021/08/16 11:17:39;;;;;;;8.13;7.33;;;28.10;1.00;;;;;;5074894;28;20447;-55
2021/08/16 11:20:07;;;;;;;8.73;7.40;;;28.30;1.00;;;;;;5079061;28;20433;-54
2021/08/16 11:22:33;;;;;;;8.80;6.80;;;28.30;1.00;;;;;;5075208;28;20179;-55
2021/08/16 11:25:06;;;;;;;8.57;6.23;;;28.10;1.00;;;;;;5091812;28;20416;-52
2021/08/16 11:27:32;;;;;;;10.77;6.23;;;28.10;1.00;;;;;;5092234;28;20915;-53
2021/08/16 11:30:07;;;;;;;7.03;6.33;;;28.30;1.00;;;;;;5092382;28;20432;-53
2021/08/16 11:32:36;;;;;;;7.67;6.87;;;28.20;1.00;;;;;;5076020;28;20210;-52
2021/08/16 11:35:02;;;;;;;10.43;6.40;;;28.20;1.00;;;;;;5091651;28;20910;-53
2021/08/16 11:37:31;;;;;;;8.00;6.10;;;28.10;1.00;;;;;;5091658;28;20506;-53
2021/08/16 11:39:58;;;;;;;9.87;5.90;;;28.20;1.00;;;;;;5073040;28;20465;-54
2021/08/16 11:42:25;;;;;;;7.83;5.77;;;28.20;1.00;;;;;;5072234;28;20440;-53
2021/08/16 11:45:02;;;;;;;7.43;5.57;;;28.40;1.00;;;;;;5072006;28;20438;-53
2021/08/16 11:47:43;;;;;;;7.20;6.10;;;28.50;1.00;;;;;;5072299;28;20437;-53
2021/08/16 11:50:12;;;;;;;8.63;6.37;;;28.50;1.00;;;;;;5071987;28;20460;-54
2021/08/16 11:52:38;;;;;;;6.30;5.17;;;28.40;1.00;;;;;;5073164;28;20465;-53
2021/08/16 11:55:06;;;;;;;5.93;5.10;;;28.30;1.00;;;;;;5072304;28;21170;-52
2021/08/16 11:57:32;;;;;;;9.53;5.80;;;28.00;1.00;;;;;;5077224;28;20438;-54
2021/08/16 11:59:59;;;;;;;6.40;5.20;;;27.90;1.00;;;;;;5071568;28;20903;-52
2021/08/16 12:02:30;;;;;;;6.33;5.73;;;27.90;1.00;;;;;;5073607;28;20430;-54
2021/08/16 12:04:56;;;;;;;6.53;5.83;;;27.80;1.00;;;;;;5073568;28;20496;-53
2021/08/16 12:07:25;;;;;;;7.70;6.00;;;27.80;1.00;;;;;;5071453;28;20469;-53
2021/08/16 12:09:51;;;;;;;8.30;5.17;;;28.20;1.00;;;;;;5071930;28;20441;-54
2021/08/16 12:12:20;;;;;;;5.33;4.47;;;28.20;1.00;;;;;;5090104;28;20489;-53
2021/08/16 12:14:46;;;;;;;6.10;4.90;;;28.40;1.00;;;;;;5091863;28;20942;-53
2021/08/16 12:17:23;;;;;;;7.17;4.63;;;28.50;1.00;;;;;;5085556;28;20469;-54
2021/08/16 12:20:13;;;;;;;6.67;4.80;;;28.00;1.00;;;;;;5084700;28;20448;-54
2021/08/16 12:22:53;;;;;;;7.90;4.87;;;28.10;1.00;;;;;;5091229;28;20531;-54
2021/08/16 12:25:23;;;;;;;5.40;4.50;;;28.40;1.00;;;;;;5090540;28;20432;-55
2021/08/16 12:28:00;;;;;;;5.87;4.27;;;28.30;1.00;;;;;;5091610;28;20877;-54
2021/08/16 12:30:30;;;;;;;7.10;5.10;;;28.00;1.00;;;;;;5091545;28;20443;-53
2021/08/16 12:33:11;;;;;;;8.17;4.57;;;28.00;1.00;;;;;;5091644;28;20438;-53
2021/08/16 12:35:36;;;;;;;6.50;5.00;;;27.80;1.00;;;;;;5091094;28;20433;-54
2021/08/16 12:38:04;;;;;;;5.63;4.27;;;27.80;1.00;;;;;;5087624;28;20483;-53
2021/08/16 12:40:29;;;;;;;7.03;4.43;;;27.80;1.00;;;;;;5074800;28;20693;-55
2021/08/16 12:42:56;;;;;;;5.80;4.10;;;27.70;1.00;;;;;;5077472;28;20481;-53
2021/08/16 12:45:22;;;;;;;6.53;4.20;;;27.50;1.00;;;;;;5073134;28;20805;-56
2021/08/16 12:48:07;;;;;;;7.53;4.30;;;27.30;1.00;;;;;;5087106;28;20455;-54
2021/08/16 12:50:35;;;;;;;8.80;4.87;;;27.00;1.00;;;;;;5070574;28;20444;-54
2021/08/16 12:53:04;;;;;;;6.13;4.27;;;27.30;1.00;;;;;;5070777;28;20471;-54
2021/08/16 12:55:30;;;;;;;5.93;4.23;;;27.40;1.00;;;;;;5085362;28;20493;-53